CheckWX is a tool to help pilots better visualize weather data.  It is not intended as a substitute for an official pre-flight weather briefing.

23:36:44 UTC

KJST METAR
John Murtha Johnstown-Cambria Co Airport
Johnstown, Pennsylvania, USA
Current

43 mins ago

KJST 182254Z AUTO 30006KT 10SM CLR 06/01 A3001 RMK AO2 SLP176 T00610006
Observed
Oct-18 @ 22:54 UTC
Wind
  • 300° at 6 KTS
Visibility
10 SM
Flight Rules
VFR
Cloud Levels
  • Clear skies
Temperature
C / 43°F
Dewpoint
C / 34°F
Humidity
71%
Altimeter
30.01" Hg
Pressure
1016.22 hPa
Previous

2 hours ago

KJST 182202Z AUTO 30008KT 10SM SCT029 08/01 A3002 RMK AO2 T00780011
Observed
Oct-18 @ 22:02 UTC
Wind
  • 300° at 8 KTS
Visibility
10 SM
Flight Rules
VFR
Cloud Levels
  • Scattered at 2,900' AGL
Temperature
C / 46°F
Dewpoint
C / 34°F
Humidity
62%
Altimeter
30.02" Hg
Pressure
1016.62 hPa
Previous

2 hours ago

KJST 182154Z AUTO 30007KT 10SM BKN029 07/01 A3002 RMK AO2 SLP178 T00720011
Observed
Oct-18 @ 21:54 UTC
Wind
  • 300° at 7 KTS
Visibility
10 SM
Flight Rules
MVFR
Cloud Levels
  • Broken at 2,900' AGL
Temperature
C / 45°F
Dewpoint
C / 34°F
Humidity
66%
Altimeter
30.02" Hg
Pressure
1016.62 hPa